createdAt,value
2017-10-17T00:00:32.140Z,8.47
2017-10-17T00:10:08.359Z,8.37
2017-10-17T00:19:49.092Z,8.37
2017-10-17T00:29:20.294Z,8.28
2017-10-17T00:38:57.113Z,8.28
2017-10-17T00:48:33.839Z,8.08
2017-10-17T00:58:14.583Z,8.08
2017-10-17T01:07:45.420Z,8.08
2017-10-17T01:17:21.890Z,7.89
2017-10-17T01:27:02.429Z,7.79
2017-10-17T01:36:33.294Z,7.88
2017-10-17T01:46:09.809Z,7.79
2017-10-17T01:55:50.471Z,7.89
2017-10-17T02:05:20.910Z,7.98
2017-10-17T02:14:58.572Z,7.79
2017-10-17T02:24:35.005Z,7.69
2017-10-17T02:34:15.828Z,7.89
2017-10-17T02:43:46.098Z,7.69
2017-10-17T02:53:23.333Z,7.59
2017-10-17T03:03:00.155Z,7.59
2017-10-17T03:12:37.219Z,7.49
2017-10-17T03:22:13.725Z,7.49
2017-10-17T03:31:50.357Z,7.49
2017-10-17T03:41:26.642Z,7.40
2017-10-17T03:51:04.136Z,7.40
2017-10-17T04:00:44.822Z,7.30
2017-10-17T04:10:15.576Z,7.40
2017-10-17T04:19:52.221Z,7.40
2017-10-17T04:29:28.650Z,7.20
2017-10-17T04:39:05.499Z,7.20
2017-10-17T04:48:41.936Z,7.20
2017-10-17T04:58:18.795Z,7.00
2017-10-17T05:07:55.268Z,7.10
2017-10-17T05:17:32.777Z,7.01
2017-10-17T05:27:09.083Z,7.20
2017-10-17T05:36:46.827Z,7.20
2017-10-17T05:46:23.306Z,7.30
2017-10-17T05:56:01.001Z,7.40
2017-10-17T06:05:37.859Z,7.50
2017-10-17T06:15:15.066Z,7.88
2017-10-17T06:24:52.449Z,8.28
2017-10-17T06:34:34.006Z,8.67
2017-10-17T06:44:05.418Z,9.06
2017-10-17T06:53:43.266Z,9.55
2017-10-17T07:03:25.027Z,10.14
2017-10-17T07:12:56.937Z,10.62
2017-10-17T07:22:34.769Z,11.01
2017-10-17T07:32:12.177Z,11.41
2017-10-17T07:41:50.269Z,11.90
2017-10-17T07:51:28.318Z,12.68
2017-10-17T08:01:06.344Z,13.17
2017-10-17T08:10:44.148Z,13.56
2017-10-17T08:20:22.798Z,14.14
2017-10-17T08:30:06.229Z,14.83
2017-10-17T08:39:37.410Z,15.32
2017-10-17T08:49:14.912Z,15.61
2017-10-17T08:58:52.917Z,16.30
2017-10-17T09:08:31.095Z,16.88
2017-10-17T09:18:13.305Z,17.47
2017-10-17T09:27:45.598Z,18.16
2017-10-17T09:37:27.564Z,18.74
2017-10-17T09:46:59.000Z,18.94
2017-10-17T09:56:38.259Z,19.13
2017-10-17T10:06:16.133Z,19.62
2017-10-17T10:15:58.724Z,20.40
2017-10-17T10:25:34.782Z,20.50
2017-10-17T10:35:06.699Z,20.99
2017-10-17T10:44:45.086Z,21.77
2017-10-17T10:54:23.039Z,24.22
2017-10-17T11:04:00.762Z,25.19
2017-10-17T11:13:42.277Z,25.88
2017-10-17T11:23:19.205Z,25.19
2017-10-17T11:32:50.086Z,24.41
2017-10-17T11:42:31.919Z,24.90
2017-10-17T11:52:02.986Z,24.51
2017-10-17T12:01:45.368Z,24.61
2017-10-17T12:11:21.738Z,25.00
2017-10-17T12:20:53.919Z,25.78
2017-10-17T12:30:35.795Z,24.12
2017-10-17T12:40:08.412Z,24.71
2017-10-17T12:49:45.752Z,24.61
2017-10-17T12:59:24.966Z,26.56
2017-10-17T13:09:05.401Z,26.76
2017-10-17T13:18:43.576Z,26.76
2017-10-17T13:28:21.658Z,30.08
2017-10-17T13:38:00.562Z,28.03
2017-10-17T13:47:38.652Z,27.44
2017-10-17T13:57:21.631Z,27.15
2017-10-17T14:06:51.364Z,23.92
2017-10-17T14:16:20.859Z,22.65
2017-10-17T14:25:56.355Z,22.26
2017-10-17T14:35:34.095Z,21.87
2017-10-17T14:45:10.342Z,21.48
2017-10-17T14:54:47.963Z,20.99
2017-10-17T15:04:23.966Z,20.31
2017-10-17T15:14:01.217Z,20.21
2017-10-17T15:23:37.468Z,18.94
2017-10-17T15:33:13.261Z,18.64
2017-10-17T15:42:49.349Z,17.47
2017-10-17T15:52:25.392Z,16.69
2017-10-17T16:02:05.388Z,16.00
2017-10-17T16:11:35.837Z,15.42
2017-10-17T16:21:11.630Z,14.93
2017-10-17T16:30:47.404Z,14.53
2017-10-17T16:40:29.139Z,14.24
2017-10-17T16:49:59.480Z,13.85
2017-10-17T16:59:36.123Z,13.46
2017-10-17T17:09:16.667Z,13.17
2017-10-17T17:18:47.278Z,12.97
2017-10-17T17:28:23.695Z,12.78
2017-10-17T17:38:04.272Z,12.58
2017-10-17T17:47:35.294Z,12.29
2017-10-17T17:57:11.794Z,12.19
2017-10-17T18:06:49.639Z,11.99
2017-10-17T18:16:26.545Z,11.80
2017-10-17T18:26:03.490Z,11.80
2017-10-17T18:35:40.380Z,11.60
2017-10-17T18:45:16.574Z,11.41
2017-10-17T18:54:53.765Z,11.41
2017-10-17T19:04:31.480Z,11.21
2017-10-17T19:14:12.367Z,11.02
2017-10-17T19:23:43.458Z,11.01
2017-10-17T19:33:20.041Z,11.02
2017-10-17T19:42:57.547Z,10.92
2017-10-17T19:52:38.393Z,10.72
2017-10-17T20:02:09.365Z,10.72
2017-10-17T20:11:46.206Z,10.62
2017-10-17T20:21:23.414Z,10.62
2017-10-17T20:31:00.286Z,10.53
2017-10-17T20:40:37.315Z,10.43
2017-10-17T20:50:14.393Z,10.33
2017-10-17T20:59:51.351Z,10.23
2017-10-17T21:09:27.833Z,10.14
2017-10-17T21:19:05.645Z,9.94
2017-10-17T21:28:42.335Z,10.04
2017-10-17T21:38:20.320Z,9.84
2017-10-17T21:47:56.995Z,9.74
2017-10-17T21:57:33.952Z,9.74
2017-10-17T22:07:10.623Z,9.65
2017-10-17T22:16:47.074Z,9.55
2017-10-17T22:26:24.807Z,9.45
2017-10-17T22:36:01.247Z,9.35
2017-10-17T22:45:37.953Z,9.16
2017-10-17T22:55:14.723Z,9.06
2017-10-17T23:04:51.240Z,9.06
2017-10-17T23:14:28.172Z,9.06
2017-10-17T23:24:05.505Z,8.96
2017-10-17T23:33:42.358Z,8.96
2017-10-17T23:43:19.939Z,8.86
2017-10-17T23:52:57.074Z,8.77
